sensor_id;sensor_type;location;lat;lon;timestamp;pressure;altitude;pressure_sealevel;temperature;humidity
9746;BME280;4912;50.836;12.958;2023-01-29T00:01:41;98932.94;;;-0.13;65.22
9746;BME280;4912;50.836;12.958;2023-01-29T00:04:11;98927.59;;;-0.35;65.25
9746;BME280;4912;50.836;12.958;2023-01-29T00:06:45;98930.06;;;-0.23;65.98
9746;BME280;4912;50.836;12.958;2023-01-29T00:09:15;98920.16;;;-0.09;65.81
9746;BME280;4912;50.836;12.958;2023-01-29T00:11:48;98925.81;;;0.06;65.55
9746;BME280;4912;50.836;12.958;2023-01-29T00:14:19;98919.97;;;0.07;65.40
9746;BME280;4912;50.836;12.958;2023-01-29T00:16:49;98907.81;;;-0.03;65.24
9746;BME280;4912;50.836;12.958;2023-01-29T00:19:20;98910.81;;;-0.11;65.55
9746;BME280;4912;50.836;12.958;2023-01-29T00:21:50;98914.00;;;-0.35;66.20
9746;BME280;4912;50.836;12.958;2023-01-29T00:24:21;98911.69;;;-0.33;66.78
9746;BME280;4912;50.836;12.958;2023-01-29T00:26:54;98910.31;;;-0.20;66.63
9746;BME280;4912;50.836;12.958;2023-01-29T00:29:25;98908.13;;;-0.08;67.28
9746;BME280;4912;50.836;12.958;2023-01-29T00:31:55;98895.69;;;-0.09;66.72
9746;BME280;4912;50.836;12.958;2023-01-29T00:34:26;98893.75;;;-0.08;66.40
9746;BME280;4912;50.836;12.958;2023-01-29T00:36:56;98900.22;;;-0.20;66.76
9746;BME280;4912;50.836;12.958;2023-01-29T00:39:30;98890.53;;;-0.17;67.22
9746;BME280;4912;50.836;12.958;2023-01-29T00:42:16;98888.69;;;-0.10;67.01
9746;BME280;4912;50.836;12.958;2023-01-29T00:44:59;98885.25;;;-0.03;66.99
9746;BME280;4912;50.836;12.958;2023-01-29T00:47:29;98887.16;;;-0.07;66.72
9746;BME280;4912;50.836;12.958;2023-01-29T00:50:00;98884.34;;;-0.14;66.89
9746;BME280;4912;50.836;12.958;2023-01-29T00:52:31;98877.44;;;-0.08;67.06
9746;BME280;4912;50.836;12.958;2023-01-29T00:55:04;98884.94;;;0.02;67.81
9746;BME280;4912;50.836;12.958;2023-01-29T00:57:39;98885.38;;;0.08;67.57
9746;BME280;4912;50.836;12.958;2023-01-29T01:00:12;98884.22;;;0.09;67.06
9746;BME280;4912;50.836;12.958;2023-01-29T01:02:45;98873.81;;;-0.19;67.00
9746;BME280;4912;50.836;12.958;2023-01-29T01:05:27;98881.66;;;-0.11;67.93
9746;BME280;4912;50.836;12.958;2023-01-29T01:07:58;98889.47;;;-0.09;67.77
9746;BME280;4912;50.836;12.958;2023-01-29T01:10:32;98897.44;;;-0.23;66.73
9746;BME280;4912;50.836;12.958;2023-01-29T01:13:03;98902.97;;;-0.16;66.89
9746;BME280;4912;50.836;12.958;2023-01-29T01:15:36;98904.88;;;-0.20;66.76
9746;BME280;4912;50.836;12.958;2023-01-29T01:18:08;98894.34;;;-0.22;66.22
9746;BME280;4912;50.836;12.958;2023-01-29T01:20:41;98902.56;;;-0.18;66.21
9746;BME280;4912;50.836;12.958;2023-01-29T01:23:11;98898.28;;;-0.19;65.86
9746;BME280;4912;50.836;12.958;2023-01-29T01:25:42;98895.50;;;-0.23;66.65
9746;BME280;4912;50.836;12.958;2023-01-29T01:28:15;98889.34;;;-0.20;66.76
9746;BME280;4912;50.836;12.958;2023-01-29T01:30:45;98883.94;;;-0.16;67.08
9746;BME280;4912;50.836;12.958;2023-01-29T01:33:16;98878.47;;;-0.20;66.52
9746;BME280;4912;50.836;12.958;2023-01-29T01:35:46;98876.09;;;-0.21;66.68
9746;BME280;4912;50.836;12.958;2023-01-29T01:38:16;98878.16;;;-0.11;66.76
9746;BME280;4912;50.836;12.958;2023-01-29T01:40:47;98880.84;;;-0.15;66.73
9746;BME280;4912;50.836;12.958;2023-01-29T01:43:19;98878.81;;;-0.21;66.34
9746;BME280;4912;50.836;12.958;2023-01-29T01:45:50;98891.16;;;-0.31;66.42
9746;BME280;4912;50.836;12.958;2023-01-29T01:48:23;98883.78;;;-0.30;66.87
9746;BME280;4912;50.836;12.958;2023-01-29T01:50:58;98873.72;;;-0.26;67.32
9746;BME280;4912;50.836;12.958;2023-01-29T01:53:34;98875.56;;;-0.34;67.53
9746;BME280;4912;50.836;12.958;2023-01-29T01:56:11;98869.72;;;-0.36;67.98
9746;BME280;4912;50.836;12.958;2023-01-29T01:58:47;98875.97;;;-0.32;68.17
9746;BME280;4912;50.836;12.958;2023-01-29T02:01:21;98874.13;;;-0.24;68.02
9746;BME280;4912;50.836;12.958;2023-01-29T02:03:58;98868.72;;;-0.21;68.02
9746;BME280;4912;50.836;12.958;2023-01-29T02:06:43;98870.34;;;-0.16;68.15
9746;BME280;4912;50.836;12.958;2023-01-29T02:09:30;98876.53;;;-0.19;68.53
9746;BME280;4912;50.836;12.958;2023-01-29T02:12:05;98876.88;;;-0.21;69.01
9746;BME280;4912;50.836;12.958;2023-01-29T02:14:41;98880.41;;;-0.20;68.83
9746;BME280;4912;50.836;12.958;2023-01-29T02:17:14;98873.47;;;-0.14;68.33
9746;BME280;4912;50.836;12.958;2023-01-29T02:19:49;98867.91;;;-0.25;67.10
9746;BME280;4912;50.836;12.958;2023-01-29T02:22:50;98866.38;;;-0.52;66.33
9746;BME280;4912;50.836;12.958;2023-01-29T02:25:53;98870.31;;;-0.76;66.80
9746;BME280;4912;50.836;12.958;2023-01-29T02:28:37;98874.22;;;-0.77;66.61
9746;BME280;4912;50.836;12.958;2023-01-29T02:31:16;98867.81;;;-0.88;66.63
9746;BME280;4912;50.836;12.958;2023-01-29T02:34:02;98860.19;;;-0.79;66.38
9746;BME280;4912;50.836;12.958;2023-01-29T02:36:43;98851.50;;;-0.88;66.04
9746;BME280;4912;50.836;12.958;2023-01-29T02:39:22;98854.72;;;-1.09;66.57
9746;BME280;4912;50.836;12.958;2023-01-29T02:42:01;98855.22;;;-1.26;67.12
9746;BME280;4912;50.836;12.958;2023-01-29T02:44:47;98866.44;;;-1.28;67.49
9746;BME280;4912;50.836;12.958;2023-01-29T02:47:26;98861.63;;;-1.38;67.75
9746;BME280;4912;50.836;12.958;2023-01-29T02:50:03;98856.25;;;-1.34;68.03
9746;BME280;4912;50.836;12.958;2023-01-29T02:52:39;98859.94;;;-1.46;68.35
9746;BME280;4912;50.836;12.958;2023-01-29T02:55:20;98868.47;;;-1.47;68.86
9746;BME280;4912;50.836;12.958;2023-01-29T02:57:55;98871.34;;;-1.37;68.81
9746;BME280;4912;50.836;12.958;2023-01-29T03:00:33;98871.03;;;-1.32;68.60
9746;BME280;4912;50.836;12.958;2023-01-29T03:03:10;98867.97;;;-1.30;68.50
9746;BME280;4912;50.836;12.958;2023-01-29T03:05:49;98870.13;;;-1.39;68.74
9746;BME280;4912;50.836;12.958;2023-01-29T03:08:29;98867.66;;;-1.48;69.38
9746;BME280;4912;50.836;12.958;2023-01-29T03:11:10;98882.69;;;-1.54;69.67
9746;BME280;4912;50.836;12.958;2023-01-29T03:13:45;98884.78;;;-1.44;69.90
9746;BME280;4912;50.836;12.958;2023-01-29T03:16:23;98889.38;;;-1.48;69.60
9746;BME280;4912;50.836;12.958;2023-01-29T03:18:59;98884.75;;;-1.47;70.09
9746;BME280;4912;50.836;12.958;2023-01-29T03:21:37;98872.53;;;-1.57;70.33
9746;BME280;4912;50.836;12.958;2023-01-29T03:24:34;98873.63;;;-1.61;70.95
9746;BME280;4912;50.836;12.958;2023-01-29T03:27:25;98865.06;;;-1.63;70.96
9746;BME280;4912;50.836;12.958;2023-01-29T03:30:13;98872.31;;;-1.71;71.15
9746;BME280;4912;50.836;12.958;2023-01-29T03:33:14;98872.31;;;-1.71;71.11
9746;BME280;4912;50.836;12.958;2023-01-29T03:35:50;98883.06;;;-1.75;71.13
9746;BME280;4912;50.836;12.958;2023-01-29T03:38:27;98883.69;;;-1.62;70.88
9746;BME280;4912;50.836;12.958;2023-01-29T03:41:04;98886.84;;;-1.60;70.67
9746;BME280;4912;50.836;12.958;2023-01-29T03:43:49;98887.69;;;-1.56;70.22
9746;BME280;4912;50.836;12.958;2023-01-29T03:46:28;98881.16;;;-1.74;70.76
9746;BME280;4912;50.836;12.958;2023-01-29T03:49:11;98875.66;;;-1.78;71.09
9746;BME280;4912;50.836;12.958;2023-01-29T03:51:54;98871.72;;;-1.80;71.04
9746;BME280;4912;50.836;12.958;2023-01-29T03:54:35;98865.47;;;-1.84;71.46
9746;BME280;4912;50.836;12.958;2023-01-29T03:57:12;98872.16;;;-1.78;71.10
9746;BME280;4912;50.836;12.958;2023-01-29T03:59:52;98881.56;;;-1.72;70.91
9746;BME280;4912;50.836;12.958;2023-01-29T04:02:47;98880.34;;;-1.75;70.80
9746;BME280;4912;50.836;12.958;2023-01-29T04:05:27;98885.28;;;-1.80;71.00
9746;BME280;4912;50.836;12.958;2023-01-29T04:08:25;98879.03;;;-1.84;71.49
9746;BME280;4912;50.836;12.958;2023-01-29T04:11:03;98870.72;;;-1.72;70.88
9746;BME280;4912;50.836;12.958;2023-01-29T04:13:39;98872.88;;;-1.81;71.04
9746;BME280;4912;50.836;12.958;2023-01-29T04:16:14;98866.31;;;-1.80;71.13
9746;BME280;4912;50.836;12.958;2023-01-29T04:19:13;98864.97;;;-1.90;71.59
9746;BME280;4912;50.836;12.958;2023-01-29T04:21:48;98855.28;;;-1.91;71.79
9746;BME280;4912;50.836;12.958;2023-01-29T04:24:19;98851.34;;;-1.93;71.72
9746;BME280;4912;50.836;12.958;2023-01-29T04:26:54;98852.50;;;-1.94;71.96
9746;BME280;4912;50.836;12.958;2023-01-29T04:29:46;98852.66;;;-2.07;72.61
9746;BME280;4912;50.836;12.958;2023-01-29T04:32:27;98849.28;;;-2.00;72.51
9746;BME280;4912;50.836;12.958;2023-01-29T04:35:10;98848.13;;;-1.99;72.52
9746;BME280;4912;50.836;12.958;2023-01-29T04:37:55;98850.22;;;-2.12;73.05
9746;BME280;4912;50.836;12.958;2023-01-29T04:40:37;98843.25;;;-2.13;73.19
9746;BME280;4912;50.836;12.958;2023-01-29T04:43:16;98837.88;;;-2.09;73.16
9746;BME280;4912;50.836;12.958;2023-01-29T04:46:01;98839.66;;;-2.17;73.47
9746;BME280;4912;50.836;12.958;2023-01-29T04:48:49;98837.88;;;-2.09;73.61
9746;BME280;4912;50.836;12.958;2023-01-29T04:51:34;98826.31;;;-2.06;73.35
9746;BME280;4912;50.836;12.958;2023-01-29T04:54:18;98809.69;;;-2.24;73.92
9746;BME280;4912;50.836;12.958;2023-01-29T04:56:57;98806.72;;;-2.19;74.19
9746;BME280;4912;50.836;12.958;2023-01-29T04:59:36;98795.31;;;-2.28;74.54
9746;BME280;4912;50.836;12.958;2023-01-29T05:02:11;98796.44;;;-2.29;74.72
9746;BME280;4912;50.836;12.958;2023-01-29T05:04:43;98789.75;;;-2.35;75.07
9746;BME280;4912;50.836;12.958;2023-01-29T05:07:14;98784.06;;;-2.30;75.22
9746;BME280;4912;50.836;12.958;2023-01-29T05:09:49;98780.63;;;-2.27;75.34
9746;BME280;4912;50.836;12.958;2023-01-29T05:12:21;98774.06;;;-2.26;75.36
9746;BME280;4912;50.836;12.958;2023-01-29T05:14:55;98785.81;;;-2.18;75.34
9746;BME280;4912;50.836;12.958;2023-01-29T05:17:29;98785.75;;;-2.22;75.34
9746;BME280;4912;50.836;12.958;2023-01-29T05:19:59;98793.53;;;-2.20;75.05
9746;BME280;4912;50.836;12.958;2023-01-29T05:22:30;98784.56;;;-2.24;75.31
9746;BME280;4912;50.836;12.958;2023-01-29T05:25:05;98783.81;;;-2.21;75.35
9746;BME280;4912;50.836;12.958;2023-01-29T05:27:39;98773.97;;;-2.29;75.22
9746;BME280;4912;50.836;12.958;2023-01-29T05:30:22;98772.66;;;-2.39;75.82
9746;BME280;4912;50.836;12.958;2023-01-29T05:32:52;98781.06;;;-2.44;76.07
9746;BME280;4912;50.836;12.958;2023-01-29T05:35:23;98782.94;;;-2.48;76.57
9746;BME280;4912;50.836;12.958;2023-01-29T05:37:54;98780.13;;;-2.32;76.19
9746;BME280;4912;50.836;12.958;2023-01-29T05:40:27;98782.78;;;-2.36;75.98
9746;BME280;4912;50.836;12.958;2023-01-29T05:42:57;98782.53;;;-2.27;75.80
9746;BME280;4912;50.836;12.958;2023-01-29T05:45:28;98773.78;;;-2.40;76.11
9746;BME280;4912;50.836;12.958;2023-01-29T05:47:59;98770.53;;;-2.49;76.43
9746;BME280;4912;50.836;12.958;2023-01-29T05:50:29;98764.19;;;-2.57;76.65
9746;BME280;4912;50.836;12.958;2023-01-29T05:53:00;98759.19;;;-2.55;76.61
9746;BME280;4912;50.836;12.958;2023-01-29T05:55:34;98766.09;;;-2.76;77.45
9746;BME280;4912;50.836;12.958;2023-01-29T05:58:04;98778.34;;;-2.82;77.94
9746;BME280;4912;50.836;12.958;2023-01-29T06:00:35;98783.41;;;-2.81;78.01
9746;BME280;4912;50.836;12.958;2023-01-29T06:03:05;98782.22;;;-2.83;78.25
9746;BME280;4912;50.836;12.958;2023-01-29T06:05:37;98786.00;;;-2.69;78.02
9746;BME280;4912;50.836;12.958;2023-01-29T06:08:07;98782.00;;;-2.56;77.35
9746;BME280;4912;50.836;12.958;2023-01-29T06:10:41;98786.19;;;-2.58;77.17
9746;BME280;4912;50.836;12.958;2023-01-29T06:13:11;98776.22;;;-2.54;76.64
9746;BME280;4912;50.836;12.958;2023-01-29T06:15:42;98782.59;;;-2.66;76.84
9746;BME280;4912;50.836;12.958;2023-01-29T06:18:12;98789.53;;;-2.65;77.10
9746;BME280;4912;50.836;12.958;2023-01-29T06:20:42;98800.91;;;-2.59;76.90
9746;BME280;4912;50.836;12.958;2023-01-29T06:23:13;98806.16;;;-2.47;76.40
9746;BME280;4912;50.836;12.958;2023-01-29T06:25:46;98813.28;;;-2.58;76.38
9746;BME280;4912;50.836;12.958;2023-01-29T06:28:16;98805.16;;;-2.58;76.65
9746;BME280;4912;50.836;12.958;2023-01-29T06:30:46;98811.16;;;-2.68;76.58
9746;BME280;4912;50.836;12.958;2023-01-29T06:33:17;98823.63;;;-2.64;76.76
9746;BME280;4912;50.836;12.958;2023-01-29T06:35:47;98817.00;;;-2.66;76.70
9746;BME280;4912;50.836;12.958;2023-01-29T06:38:17;98817.34;;;-2.68;76.89
9746;BME280;4912;50.836;12.958;2023-01-29T06:40:50;98810.31;;;-2.72;77.39
9746;BME280;4912;50.836;12.958;2023-01-29T06:43:21;98812.78;;;-2.64;76.69
9746;BME280;4912;50.836;12.958;2023-01-29T06:45:52;98806.88;;;-2.69;76.87
9746;BME280;4912;50.836;12.958;2023-01-29T06:48:23;98818.13;;;-2.86;77.10
9746;BME280;4912;50.836;12.958;2023-01-29T06:50:54;98815.50;;;-2.83;77.76
9746;BME280;4912;50.836;12.958;2023-01-29T06:53:24;98814.34;;;-2.63;77.23
9746;BME280;4912;50.836;12.958;2023-01-29T06:55:57;98827.13;;;-2.63;76.83
9746;BME280;4912;50.836;12.958;2023-01-29T06:58:27;98832.88;;;-2.65;76.61
9746;BME280;4912;50.836;12.958;2023-01-29T07:01:02;98837.38;;;-2.53;76.15
9746;BME280;4912;50.836;12.958;2023-01-29T07:03:33;98850.81;;;-2.60;75.91
9746;BME280;4912;50.836;12.958;2023-01-29T07:06:04;98850.94;;;-2.53;75.99
9746;BME280;4912;50.836;12.958;2023-01-29T07:08:35;98859.00;;;-2.57;75.92
9746;BME280;4912;50.836;12.958;2023-01-29T07:11:09;98868.69;;;-2.56;76.00
9746;BME280;4912;50.836;12.958;2023-01-29T07:13:39;98876.84;;;-2.36;75.57
9746;BME280;4912;50.836;12.958;2023-01-29T07:16:09;98887.47;;;-2.28;75.14
9746;BME280;4912;50.836;12.958;2023-01-29T07:18:40;98880.63;;;-2.02;75.46
9746;BME280;4912;50.836;12.958;2023-01-29T07:21:10;98881.81;;;-2.00;74.33
9746;BME280;4912;50.836;12.958;2023-01-29T07:23:41;98885.38;;;-1.96;73.64
9746;BME280;4912;50.836;12.958;2023-01-29T07:26:14;98873.75;;;-1.96;73.67
9746;BME280;4912;50.836;12.958;2023-01-29T07:28:44;98891.84;;;-1.81;73.12
9746;BME280;4912;50.836;12.958;2023-01-29T07:31:15;98881.31;;;-1.86;72.77
9746;BME280;4912;50.836;12.958;2023-01-29T07:33:45;98885.66;;;-1.82;72.61
9746;BME280;4912;50.836;12.958;2023-01-29T07:36:18;98903.44;;;-1.84;72.44
9746;BME280;4912;50.836;12.958;2023-01-29T07:38:49;98900.91;;;-1.74;72.23
9746;BME280;4912;50.836;12.958;2023-01-29T07:41:23;98913.56;;;-1.81;72.08
9746;BME280;4912;50.836;12.958;2023-01-29T07:43:53;98903.44;;;-1.84;71.82
9746;BME280;4912;50.836;12.958;2023-01-29T07:46:24;98896.94;;;-1.99;72.27
9746;BME280;4912;50.836;12.958;2023-01-29T07:48:54;98903.34;;;-1.88;72.87
9746;BME280;4912;50.836;12.958;2023-01-29T07:51:24;98899.66;;;-1.80;72.33
9746;BME280;4912;50.836;12.958;2023-01-29T07:53:55;98905.16;;;-1.95;71.94
9746;BME280;4912;50.836;12.958;2023-01-29T07:56:28;98905.22;;;-1.92;72.25
9746;BME280;4912;50.836;12.958;2023-01-29T07:58:58;98894.94;;;-1.83;72.32
9746;BME280;4912;50.836;12.958;2023-01-29T08:01:29;98902.78;;;-1.78;71.69
9746;BME280;4912;50.836;12.958;2023-01-29T08:03:59;98907.78;;;-1.80;71.67
9746;BME280;4912;50.836;12.958;2023-01-29T08:06:29;98895.31;;;-2.03;72.06
9746;BME280;4912;50.836;12.958;2023-01-29T08:09:00;98879.25;;;-1.93;72.23
9746;BME280;4912;50.836;12.958;2023-01-29T08:11:33;98882.44;;;-1.87;72.03
9746;BME280;4912;50.836;12.958;2023-01-29T08:14:04;98876.16;;;-1.72;71.45
9746;BME280;4912;50.836;12.958;2023-01-29T08:16:35;98873.84;;;-1.70;71.46
9746;BME280;4912;50.836;12.958;2023-01-29T08:19:05;98874.25;;;-1.49;71.47
9746;BME280;4912;50.836;12.958;2023-01-29T08:21:36;98871.22;;;-1.44;70.23
9746;BME280;4912;50.836;12.958;2023-01-29T08:24:06;98861.03;;;-1.50;70.45
9746;BME280;4912;50.836;12.958;2023-01-29T08:26:39;98861.16;;;-1.66;70.39
9746;BME280;4912;50.836;12.958;2023-01-29T08:29:10;98856.38;;;-1.73;70.50
9746;BME280;4912;50.836;12.958;2023-01-29T08:31:41;98852.44;;;-1.75;70.94
9746;BME280;4912;50.836;12.958;2023-01-29T08:34:11;98857.09;;;-1.53;71.08
9746;BME280;4912;50.836;12.958;2023-01-29T08:36:41;98849.47;;;-1.47;70.56
9746;BME280;4912;50.836;12.958;2023-01-29T08:39:12;98853.53;;;-1.57;70.76
9746;BME280;4912;50.836;12.958;2023-01-29T08:41:45;98848.59;;;-1.51;70.62
9746;BME280;4912;50.836;12.958;2023-01-29T08:44:16;98847.75;;;-1.33;69.93
9746;BME280;4912;50.836;12.958;2023-01-29T08:46:46;98854.56;;;-1.42;69.51
9746;BME280;4912;50.836;12.958;2023-01-29T08:49:16;98852.09;;;-1.51;69.69
9746;BME280;4912;50.836;12.958;2023-01-29T08:51:47;98853.59;;;-1.31;69.86
9746;BME280;4912;50.836;12.958;2023-01-29T08:54:17;98841.53;;;-1.33;69.57
9746;BME280;4912;50.836;12.958;2023-01-29T08:56:50;98851.38;;;-1.25;69.28
9746;BME280;4912;50.836;12.958;2023-01-29T08:59:21;98851.72;;;-1.27;69.09
9746;BME280;4912;50.836;12.958;2023-01-29T09:01:51;98854.38;;;-1.30;68.81
9746;BME280;4912;50.836;12.958;2023-01-29T09:04:22;98864.97;;;-1.21;69.07
9746;BME280;4912;50.836;12.958;2023-01-29T09:06:52;98860.34;;;-1.44;69.52
9746;BME280;4912;50.836;12.958;2023-01-29T09:09:23;98875.50;;;-1.43;69.89
9746;BME280;4912;50.836;12.958;2023-01-29T09:11:56;98870.19;;;-1.36;70.14
9746;BME280;4912;50.836;12.958;2023-01-29T09:14:26;98872.34;;;-1.22;70.13
9746;BME280;4912;50.836;12.958;2023-01-29T09:16:56;98858.59;;;-1.33;69.79
9746;BME280;4912;50.836;12.958;2023-01-29T09:19:27;98853.47;;;-1.38;69.92
9746;BME280;4912;50.836;12.958;2023-01-29T09:21:58;98848.03;;;-1.15;70.20
9746;BME280;4912;50.836;12.958;2023-01-29T09:24:28;98854.94;;;-1.17;69.57
9746;BME280;4912;50.836;12.958;2023-01-29T09:27:01;98854.47;;;-1.00;69.61
9746;BME280;4912;50.836;12.958;2023-01-29T09:29:32;98863.69;;;-1.05;69.40
9746;BME280;4912;50.836;12.958;2023-01-29T09:32:02;98862.34;;;-0.92;69.00
9746;BME280;4912;50.836;12.958;2023-01-29T09:34:33;98860.38;;;-1.17;69.36
9746;BME280;4912;50.836;12.958;2023-01-29T09:37:03;98863.19;;;-1.14;70.15
9746;BME280;4912;50.836;12.958;2023-01-29T09:39:34;98863.84;;;-0.94;69.22
9746;BME280;4912;50.836;12.958;2023-01-29T09:42:11;98854.47;;;-1.00;69.58
9746;BME280;4912;50.836;12.958;2023-01-29T09:44:47;98859.38;;;-0.83;69.55
9746;BME280;4912;50.836;12.958;2023-01-29T09:47:24;98846.41;;;-0.67;69.10
9746;BME280;4912;50.836;12.958;2023-01-29T09:49:58;98845.63;;;-0.67;69.21
9746;BME280;4912;50.836;12.958;2023-01-29T09:52:34;98842.38;;;-0.76;68.99
9746;BME280;4912;50.836;12.958;2023-01-29T09:55:11;98840.56;;;-0.95;69.66
9746;BME280;4912;50.836;12.958;2023-01-29T09:57:49;98834.75;;;-0.94;69.98
9746;BME280;4912;50.836;12.958;2023-01-29T10:00:24;98818.38;;;-1.01;70.25
9746;BME280;4912;50.836;12.958;2023-01-29T10:03:12;98813.09;;;-0.90;70.40
9746;BME280;4912;50.836;12.958;2023-01-29T10:06:04;98789.28;;;-1.00;70.79
9746;BME280;4912;50.836;12.958;2023-01-29T10:09:11;98783.56;;;-0.92;70.62
9746;BME280;4912;50.836;12.958;2023-01-29T10:12:04;98784.47;;;-0.51;70.55
9746;BME280;4912;50.836;12.958;2023-01-29T10:14:52;98772.75;;;-0.25;69.19
9746;BME280;4912;50.836;12.958;2023-01-29T10:17:41;98760.91;;;-0.06;68.49
9746;BME280;4912;50.836;12.958;2023-01-29T10:20:33;98764.84;;;0.00;67.69
9746;BME280;4912;50.836;12.958;2023-01-29T10:23:13;98765.13;;;-0.09;67.62
9746;BME280;4912;50.836;12.958;2023-01-29T10:25:48;98769.78;;;-0.09;67.61
9746;BME280;4912;50.836;12.958;2023-01-29T10:28:19;98763.28;;;-0.01;67.61
9746;BME280;4912;50.836;12.958;2023-01-29T10:30:58;98765.22;;;0.02;67.61
9746;BME280;4912;50.836;12.958;2023-01-29T10:33:49;98767.66;;;0.11;67.20
9746;BME280;4912;50.836;12.958;2023-01-29T10:36:33;98776.66;;;0.18;66.85
9746;BME280;4912;50.836;12.958;2023-01-29T10:39:14;98782.56;;;0.27;66.99
9746;BME280;4912;50.836;12.958;2023-01-29T10:42:00;98776.16;;;0.50;66.82
9746;BME280;4912;50.836;12.958;2023-01-29T10:44:49;98756.44;;;0.16;66.62
9746;BME280;4912;50.836;12.958;2023-01-29T10:47:45;98752.56;;;0.20;67.39
9746;BME280;4912;50.836;12.958;2023-01-29T10:50:46;98759.31;;;0.33;67.32
9746;BME280;4912;50.836;12.958;2023-01-29T10:53:33;98753.75;;;0.74;66.61
9746;BME280;4912;50.836;12.958;2023-01-29T10:56:20;98754.84;;;0.59;65.85
9746;BME280;4912;50.836;12.958;2023-01-29T10:59:03;98746.69;;;0.66;66.34
9746;BME280;4912;50.836;12.958;2023-01-29T11:01:56;98744.16;;;0.94;65.71
9746;BME280;4912;50.836;12.958;2023-01-29T11:04:33;98741.34;;;0.83;65.36
9746;BME280;4912;50.836;12.958;2023-01-29T11:07:05;98719.59;;;0.91;66.31
9746;BME280;4912;50.836;12.958;2023-01-29T11:09:39;98711.84;;;0.96;65.54
9746;BME280;4912;50.836;12.958;2023-01-29T11:12:13;98709.50;;;0.91;65.77
9746;BME280;4912;50.836;12.958;2023-01-29T11:14:50;98708.97;;;0.68;66.25
9746;BME280;4912;50.836;12.958;2023-01-29T11:17:25;98695.41;;;0.75;66.84
9746;BME280;4912;50.836;12.958;2023-01-29T11:19:58;98701.22;;;0.70;66.70
9746;BME280;4912;50.836;12.958;2023-01-29T11:22:29;98679.44;;;0.70;67.25
9746;BME280;4912;50.836;12.958;2023-01-29T11:25:08;98691.84;;;0.67;67.30
9746;BME280;4912;50.836;12.958;2023-01-29T11:27:43;98685.34;;;0.86;67.00
9746;BME280;4912;50.836;12.958;2023-01-29T11:30:20;98666.19;;;0.72;67.33
9746;BME280;4912;50.836;12.958;2023-01-29T11:32:59;98661.28;;;1.02;67.45
9746;BME280;4912;50.836;12.958;2023-01-29T11:35:40;98643.06;;;1.31;66.34
9746;BME280;4912;50.836;12.958;2023-01-29T11:38:20;98636.13;;;1.69;64.84
9746;BME280;4912;50.836;12.958;2023-01-29T11:40:52;98638.06;;;2.22;63.00
9746;BME280;4912;50.836;12.958;2023-01-29T11:43:27;98631.69;;;2.81;60.60
9746;BME280;4912;50.836;12.958;2023-01-29T11:46:00;98634.03;;;2.86;59.79
9746;BME280;4912;50.836;12.958;2023-01-29T11:48:39;98631.88;;;3.88;56.85
9746;BME280;4912;50.836;12.958;2023-01-29T11:51:20;98625.91;;;5.70;52.17
9746;BME280;4912;50.836;12.958;2023-01-29T11:53:55;98626.13;;;6.72;47.47
9746;BME280;4912;50.836;12.958;2023-01-29T11:56:28;98631.09;;;6.38;46.79
9746;BME280;4912;50.836;12.958;2023-01-29T11:59:12;98611.53;;;5.86;48.27
9746;BME280;4912;50.836;12.958;2023-01-29T12:02:04;98608.09;;;5.78;49.38
9746;BME280;4912;50.836;12.958;2023-01-29T12:04:46;98605.06;;;6.23;48.38
9746;BME280;4912;50.836;12.958;2023-01-29T12:07:20;98600.31;;;6.46;47.25
9746;BME280;4912;50.836;12.958;2023-01-29T12:09:53;98594.38;;;7.07;45.96
9746;BME280;4912;50.836;12.958;2023-01-29T12:12:33;98598.66;;;7.80;43.54
9746;BME280;4912;50.836;12.958;2023-01-29T12:15:18;98602.88;;;7.85;43.56
9746;BME280;4912;50.836;12.958;2023-01-29T12:17:57;98622.63;;;6.91;44.07
9746;BME280;4912;50.836;12.958;2023-01-29T12:20:35;98621.88;;;6.48;46.10
9746;BME280;4912;50.836;12.958;2023-01-29T12:23:20;98619.75;;;5.86;47.52
9746;BME280;4912;50.836;12.958;2023-01-29T12:25:59;98604.34;;;5.68;48.95
9746;BME280;4912;50.836;12.958;2023-01-29T12:28:39;98597.59;;;6.00;48.51
9746;BME280;4912;50.836;12.958;2023-01-29T12:31:35;98590.91;;;5.74;48.28
9746;BME280;4912;50.836;12.958;2023-01-29T12:34:14;98580.16;;;5.60;48.42
9746;BME280;4912;50.836;12.958;2023-01-29T12:36:51;98580.84;;;5.41;48.85
9746;BME280;4912;50.836;12.958;2023-01-29T12:39:27;98573.44;;;5.38;49.09
9746;BME280;4912;50.836;12.958;2023-01-29T12:42:02;98562.03;;;5.12;49.49
9746;BME280;4912;50.836;12.958;2023-01-29T12:44:37;98538.88;;;5.13;49.97
9746;BME280;4912;50.836;12.958;2023-01-29T12:47:15;98547.47;;;5.42;50.08
9746;BME280;4912;50.836;12.958;2023-01-29T12:49:51;98544.03;;;4.81;50.99
9746;BME280;4912;50.836;12.958;2023-01-29T12:52:35;98533.69;;;5.22;50.43
9746;BME280;4912;50.836;12.958;2023-01-29T12:55:14;98525.84;;;5.48;49.88
9746;BME280;4912;50.836;12.958;2023-01-29T12:57:52;98528.94;;;5.50;50.15
9746;BME280;4912;50.836;12.958;2023-01-29T13:00:27;98527.25;;;5.32;50.05
9746;BME280;4912;50.836;12.958;2023-01-29T13:03:00;98540.59;;;5.04;50.77
9746;BME280;4912;50.836;12.958;2023-01-29T13:05:38;98536.34;;;4.99;51.32
9746;BME280;4912;50.836;12.958;2023-01-29T13:08:17;98545.94;;;4.84;51.13
9746;BME280;4912;50.836;12.958;2023-01-29T13:10:53;98541.56;;;4.90;51.28
9746;BME280;4912;50.836;12.958;2023-01-29T13:13:29;98538.56;;;4.81;51.73
9746;BME280;4912;50.836;12.958;2023-01-29T13:16:05;98540.66;;;5.00;51.54
9746;BME280;4912;50.836;12.958;2023-01-29T13:18:42;98544.81;;;5.39;50.13
9746;BME280;4912;50.836;12.958;2023-01-29T13:21:17;98545.94;;;4.84;51.67
9746;BME280;4912;50.836;12.958;2023-01-29T13:23:50;98539.66;;;4.57;52.03
9746;BME280;4912;50.836;12.958;2023-01-29T13:26:25;98534.63;;;4.14;52.83
9746;BME280;4912;50.836;12.958;2023-01-29T13:28:57;98512.00;;;4.10;54.02
9746;BME280;4912;50.836;12.958;2023-01-29T13:31:29;98517.31;;;3.83;54.58
9746;BME280;4912;50.836;12.958;2023-01-29T13:34:13;98515.03;;;3.78;54.84
9746;BME280;4912;50.836;12.958;2023-01-29T13:36:46;98519.03;;;3.18;56.61
9746;BME280;4912;50.836;12.958;2023-01-29T13:39:23;98512.63;;;2.77;58.44
9746;BME280;4912;50.836;12.958;2023-01-29T13:41:59;98515.03;;;2.68;59.34
9746;BME280;4912;50.836;12.958;2023-01-29T13:44:33;98512.38;;;2.50;60.24
9746;BME280;4912;50.836;12.958;2023-01-29T13:47:08;98522.97;;;2.41;61.17
9746;BME280;4912;50.836;12.958;2023-01-29T13:49:42;98520.25;;;2.41;61.09
9746;BME280;4912;50.836;12.958;2023-01-29T13:52:22;98518.69;;;2.33;61.82
9746;BME280;4912;50.836;12.958;2023-01-29T13:55:00;98515.50;;;2.52;61.79
9746;BME280;4912;50.836;12.958;2023-01-29T13:57:47;98515.94;;;2.47;61.12
9746;BME280;4912;50.836;12.958;2023-01-29T14:00:48;98518.78;;;2.01;62.49
9746;BME280;4912;50.836;12.958;2023-01-29T14:03:55;98507.88;;;1.97;63.55